sensor_id;sensor_type;location;lat;lon;timestamp;P1;durP1;ratioP1;P2;durP2;ratioP2
30301;SDS011;17111;52.130;5.028;2023-04-01T00:01:23;11.82;;;5.30;;
30301;SDS011;17111;52.130;5.028;2023-04-01T00:03:49;9.57;;;4.80;;
30301;SDS011;17111;52.130;5.028;2023-04-01T00:06:17;11.27;;;5.28;;
30301;SDS011;17111;52.130;5.028;2023-04-01T00:08:45;9.05;;;5.15;;
30301;SDS011;17111;52.130;5.028;2023-04-01T00:11:12;10.98;;;5.03;;
30301;SDS011;17111;52.130;5.028;2023-04-01T00:13:40;9.98;;;5.07;;
30301;SDS011;17111;52.130;5.028;2023-04-01T00:16:07;9.13;;;4.53;;
30301;SDS011;17111;52.130;5.028;2023-04-01T00:18:46;8.32;;;4.43;;
30301;SDS011;17111;52.130;5.028;2023-04-01T00:21:14;10.30;;;5.22;;
30301;SDS011;17111;52.130;5.028;2023-04-01T00:23:41;9.30;;;4.32;;
30301;SDS011;17111;52.130;5.028;2023-04-01T00:26:08;9.63;;;4.63;;
30301;SDS011;17111;52.130;5.028;2023-04-01T00:28:34;9.45;;;5.18;;
30301;SDS011;17111;52.130;5.028;2023-04-01T00:31:06;8.25;;;4.43;;
30301;SDS011;17111;52.130;5.028;2023-04-01T00:33:33;8.88;;;4.57;;
30301;SDS011;17111;52.130;5.028;2023-04-01T00:38:40;9.27;;;4.70;;
30301;SDS011;17111;52.130;5.028;2023-04-01T00:41:09;9.10;;;4.65;;
30301;SDS011;17111;52.130;5.028;2023-04-01T00:43:42;9.20;;;4.28;;
30301;SDS011;17111;52.130;5.028;2023-04-01T00:46:10;9.63;;;4.75;;
30301;SDS011;17111;52.130;5.028;2023-04-01T00:48:53;10.30;;;4.88;;
30301;SDS011;17111;52.130;5.028;2023-04-01T00:51:22;10.48;;;4.80;;
30301;SDS011;17111;52.130;5.028;2023-04-01T00:53:52;11.75;;;5.05;;
30301;SDS011;17111;52.130;5.028;2023-04-01T00:56:54;8.98;;;4.65;;
30301;SDS011;17111;52.130;5.028;2023-04-01T00:59:23;10.57;;;4.32;;
30301;SDS011;17111;52.130;5.028;2023-04-01T01:01:56;7.57;;;4.38;;
30301;SDS011;17111;52.130;5.028;2023-04-01T01:06:55;10.02;;;5.05;;
30301;SDS011;17111;52.130;5.028;2023-04-01T01:09:36;7.82;;;4.45;;
30301;SDS011;17111;52.130;5.028;2023-04-01T01:12:22;8.88;;;4.50;;
30301;SDS011;17111;52.130;5.028;2023-04-01T01:18:13;7.90;;;4.30;;
30301;SDS011;17111;52.130;5.028;2023-04-01T01:26:35;9.88;;;4.47;;
30301;SDS011;17111;52.130;5.028;2023-04-01T01:34:24;8.45;;;4.57;;
30301;SDS011;17111;52.130;5.028;2023-04-01T01:37:01;8.15;;;4.18;;
30301;SDS011;17111;52.130;5.028;2023-04-01T01:39:32;7.82;;;3.95;;
30301;SDS011;17111;52.130;5.028;2023-04-01T01:42:03;6.70;;;3.45;;
30301;SDS011;17111;52.130;5.028;2023-04-01T01:44:32;8.23;;;3.95;;
30301;SDS011;17111;52.130;5.028;2023-04-01T01:47:01;7.10;;;4.05;;
30301;SDS011;17111;52.130;5.028;2023-04-01T01:49:28;7.35;;;4.05;;
30301;SDS011;17111;52.130;5.028;2023-04-01T01:51:58;8.48;;;4.00;;
30301;SDS011;17111;52.130;5.028;2023-04-01T01:54:24;7.60;;;3.97;;
30301;SDS011;17111;52.130;5.028;2023-04-01T01:56:52;6.45;;;3.67;;
30301;SDS011;17111;52.130;5.028;2023-04-01T01:59:26;9.70;;;4.13;;
30301;SDS011;17111;52.130;5.028;2023-04-01T02:01:54;6.75;;;3.65;;
30301;SDS011;17111;52.130;5.028;2023-04-01T02:04:22;5.72;;;3.42;;
30301;SDS011;17111;52.130;5.028;2023-04-01T02:06:52;9.13;;;4.68;;
30301;SDS011;17111;52.130;5.028;2023-04-01T02:09:24;8.85;;;3.47;;
30301;SDS011;17111;52.130;5.028;2023-04-01T02:11:51;8.50;;;3.95;;
30301;SDS011;17111;52.130;5.028;2023-04-01T02:14:22;7.45;;;3.83;;
30301;SDS011;17111;52.130;5.028;2023-04-01T02:16:53;8.35;;;3.92;;
30301;SDS011;17111;52.130;5.028;2023-04-01T02:19:25;6.13;;;3.65;;
30301;SDS011;17111;52.130;5.028;2023-04-01T02:21:59;6.65;;;3.70;;
30301;SDS011;17111;52.130;5.028;2023-04-01T02:24:29;6.63;;;3.70;;
30301;SDS011;17111;52.130;5.028;2023-04-01T02:26:59;6.05;;;3.15;;
30301;SDS011;17111;52.130;5.028;2023-04-01T02:29:25;5.35;;;3.13;;
30301;SDS011;17111;52.130;5.028;2023-04-01T02:31:53;6.32;;;3.38;;
30301;SDS011;17111;52.130;5.028;2023-04-01T02:34:21;5.60;;;3.05;;
30301;SDS011;17111;52.130;5.028;2023-04-01T02:36:50;6.07;;;3.33;;
30301;SDS011;17111;52.130;5.028;2023-04-01T02:39:17;7.40;;;3.17;;
30301;SDS011;17111;52.130;5.028;2023-04-01T02:41:44;5.57;;;3.08;;
30301;SDS011;17111;52.130;5.028;2023-04-01T02:44:12;6.40;;;3.30;;
30301;SDS011;17111;52.130;5.028;2023-04-01T02:46:40;6.63;;;3.75;;
30301;SDS011;17111;52.130;5.028;2023-04-01T02:49:07;5.85;;;3.28;;
30301;SDS011;17111;52.130;5.028;2023-04-01T02:51:34;6.88;;;3.53;;
30301;SDS011;17111;52.130;5.028;2023-04-01T02:54:01;6.60;;;3.13;;
30301;SDS011;17111;52.130;5.028;2023-04-01T02:56:27;5.38;;;3.22;;
30301;SDS011;17111;52.130;5.028;2023-04-01T02:58:54;7.22;;;3.05;;
30301;SDS011;17111;52.130;5.028;2023-04-01T03:01:22;5.45;;;2.47;;
30301;SDS011;17111;52.130;5.028;2023-04-01T03:03:49;7.55;;;3.30;;
30301;SDS011;17111;52.130;5.028;2023-04-01T03:06:16;4.22;;;2.53;;
30301;SDS011;17111;52.130;5.028;2023-04-01T03:08:43;6.10;;;3.17;;
30301;SDS011;17111;52.130;5.028;2023-04-01T03:11:11;5.50;;;2.72;;
30301;SDS011;17111;52.130;5.028;2023-04-01T03:13:38;5.65;;;3.00;;
30301;SDS011;17111;52.130;5.028;2023-04-01T03:16:04;6.03;;;2.97;;
30301;SDS011;17111;52.130;5.028;2023-04-01T03:18:31;7.60;;;3.78;;
30301;SDS011;17111;52.130;5.028;2023-04-01T03:21:11;4.75;;;3.08;;
30301;SDS011;17111;52.130;5.028;2023-04-01T03:23:48;4.88;;;3.00;;
30301;SDS011;17111;52.130;5.028;2023-04-01T03:26:15;5.05;;;2.80;;
30301;SDS011;17111;52.130;5.028;2023-04-01T03:28:42;3.67;;;2.33;;
30301;SDS011;17111;52.130;5.028;2023-04-01T03:31:09;4.38;;;2.70;;
30301;SDS011;17111;52.130;5.028;2023-04-01T03:33:37;5.30;;;2.65;;
30301;SDS011;17111;52.130;5.028;2023-04-01T03:36:03;4.78;;;2.20;;
30301;SDS011;17111;52.130;5.028;2023-04-01T03:38:35;3.80;;;2.38;;
30301;SDS011;17111;52.130;5.028;2023-04-01T03:41:02;4.85;;;2.67;;
30301;SDS011;17111;52.130;5.028;2023-04-01T03:43:29;4.00;;;2.50;;
30301;SDS011;17111;52.130;5.028;2023-04-01T03:45:56;4.65;;;2.33;;
30301;SDS011;17111;52.130;5.028;2023-04-01T03:48:24;4.07;;;2.75;;
30301;SDS011;17111;52.130;5.028;2023-04-01T03:50:51;5.32;;;2.65;;
30301;SDS011;17111;52.130;5.028;2023-04-01T03:53:18;4.00;;;2.47;;
30301;SDS011;17111;52.130;5.028;2023-04-01T03:55:44;4.07;;;2.30;;
30301;SDS011;17111;52.130;5.028;2023-04-01T03:58:11;5.93;;;2.65;;
30301;SDS011;17111;52.130;5.028;2023-04-01T04:00:37;3.05;;;2.20;;
30301;SDS011;17111;52.130;5.028;2023-04-01T04:03:05;5.18;;;2.65;;
30301;SDS011;17111;52.130;5.028;2023-04-01T04:05:32;6.95;;;2.90;;
30301;SDS011;17111;52.130;5.028;2023-04-01T04:08:00;4.60;;;2.67;;
30301;SDS011;17111;52.130;5.028;2023-04-01T04:10:26;4.22;;;2.40;;
30301;SDS011;17111;52.130;5.028;2023-04-01T04:12:55;4.60;;;2.35;;
30301;SDS011;17111;52.130;5.028;2023-04-01T04:15:22;4.60;;;2.35;;
30301;SDS011;17111;52.130;5.028;2023-04-01T04:17:49;3.80;;;2.30;;
30301;SDS011;17111;52.130;5.028;2023-04-01T04:20:16;5.30;;;2.45;;
30301;SDS011;17111;52.130;5.028;2023-04-01T04:22:42;6.38;;;2.40;;
30301;SDS011;17111;52.130;5.028;2023-04-01T04:25:09;3.30;;;1.98;;
30301;SDS011;17111;52.130;5.028;2023-04-01T04:27:36;4.13;;;2.08;;
30301;SDS011;17111;52.130;5.028;2023-04-01T04:30:03;3.58;;;2.20;;
30301;SDS011;17111;52.130;5.028;2023-04-01T04:32:31;4.50;;;2.47;;
30301;SDS011;17111;52.130;5.028;2023-04-01T04:34:58;4.43;;;2.63;;
30301;SDS011;17111;52.130;5.028;2023-04-01T04:37:24;4.55;;;2.00;;
30301;SDS011;17111;52.130;5.028;2023-04-01T04:39:51;3.95;;;2.08;;
30301;SDS011;17111;52.130;5.028;2023-04-01T04:42:18;4.38;;;1.92;;
30301;SDS011;17111;52.130;5.028;2023-04-01T04:44:45;2.88;;;1.95;;
30301;SDS011;17111;52.130;5.028;2023-04-01T04:47:11;3.22;;;2.20;;
30301;SDS011;17111;52.130;5.028;2023-04-01T04:49:38;2.83;;;2.17;;
30301;SDS011;17111;52.130;5.028;2023-04-01T04:52:05;3.05;;;1.92;;
30301;SDS011;17111;52.130;5.028;2023-04-01T04:54:32;3.35;;;2.10;;
30301;SDS011;17111;52.130;5.028;2023-04-01T04:56:58;3.03;;;1.90;;
30301;SDS011;17111;52.130;5.028;2023-04-01T04:59:25;4.38;;;2.55;;
30301;SDS011;17111;52.130;5.028;2023-04-01T05:01:52;3.60;;;2.42;;
30301;SDS011;17111;52.130;5.028;2023-04-01T05:04:18;4.90;;;2.67;;
30301;SDS011;17111;52.130;5.028;2023-04-01T05:06:45;4.07;;;2.20;;
30301;SDS011;17111;52.130;5.028;2023-04-01T05:09:12;4.03;;;2.22;;
30301;SDS011;17111;52.130;5.028;2023-04-01T05:11:38;3.67;;;2.60;;
30301;SDS011;17111;52.130;5.028;2023-04-01T05:14:05;5.43;;;2.85;;
30301;SDS011;17111;52.130;5.028;2023-04-01T05:16:31;4.47;;;2.95;;
30301;SDS011;17111;52.130;5.028;2023-04-01T05:18:58;4.15;;;2.97;;
30301;SDS011;17111;52.130;5.028;2023-04-01T05:21:25;6.05;;;3.78;;
30301;SDS011;17111;52.130;5.028;2023-04-01T05:23:51;6.57;;;3.97;;
30301;SDS011;17111;52.130;5.028;2023-04-01T05:26:18;13.90;;;4.57;;
30301;SDS011;17111;52.130;5.028;2023-04-01T05:28:44;7.63;;;4.93;;
30301;SDS011;17111;52.130;5.028;2023-04-01T05:31:11;8.63;;;5.22;;
30301;SDS011;17111;52.130;5.028;2023-04-01T05:33:37;12.30;;;6.72;;
30301;SDS011;17111;52.130;5.028;2023-04-01T05:36:08;9.88;;;6.55;;
30301;SDS011;17111;52.130;5.028;2023-04-01T05:38:36;13.63;;;7.55;;
30301;SDS011;17111;52.130;5.028;2023-04-01T05:41:03;13.95;;;8.10;;
30301;SDS011;17111;52.130;5.028;2023-04-01T05:43:30;12.30;;;7.82;;
30301;SDS011;17111;52.130;5.028;2023-04-01T05:45:57;14.43;;;8.85;;
30301;SDS011;17111;52.130;5.028;2023-04-01T05:48:24;14.32;;;8.68;;
30301;SDS011;17111;52.130;5.028;2023-04-01T05:50:50;14.43;;;9.05;;
30301;SDS011;17111;52.130;5.028;2023-04-01T05:53:17;17.25;;;10.63;;
30301;SDS011;17111;52.130;5.028;2023-04-01T05:55:43;17.40;;;10.80;;
30301;SDS011;17111;52.130;5.028;2023-04-01T05:58:10;17.25;;;10.25;;
30301;SDS011;17111;52.130;5.028;2023-04-01T06:00:37;19.38;;;12.27;;
30301;SDS011;17111;52.130;5.028;2023-04-01T06:03:03;19.73;;;12.43;;
30301;SDS011;17111;52.130;5.028;2023-04-01T06:05:34;21.40;;;12.27;;
30301;SDS011;17111;52.130;5.028;2023-04-01T06:08:14;20.73;;;11.75;;
30301;SDS011;17111;52.130;5.028;2023-04-01T06:10:51;21.38;;;12.38;;
30301;SDS011;17111;52.130;5.028;2023-04-01T06:16:18;22.08;;;13.80;;
30301;SDS011;17111;52.130;5.028;2023-04-01T06:35:59;45.00;;;25.27;;
30301;SDS011;17111;52.130;5.028;2023-04-01T06:41:28;50.22;;;29.42;;
30301;SDS011;17111;52.130;5.028;2023-04-01T06:44:06;55.78;;;31.50;;
30301;SDS011;17111;52.130;5.028;2023-04-01T06:46:47;55.70;;;32.88;;
30301;SDS011;17111;52.130;5.028;2023-04-01T06:52:18;55.17;;;32.00;;
30301;SDS011;17111;52.130;5.028;2023-04-01T06:54:57;65.82;;;38.08;;
30301;SDS011;17111;52.130;5.028;2023-04-01T06:57:29;68.40;;;37.95;;
30301;SDS011;17111;52.130;5.028;2023-04-01T07:00:02;65.68;;;35.97;;
30301;SDS011;17111;52.130;5.028;2023-04-01T07:02:41;65.50;;;35.97;;
30301;SDS011;17111;52.130;5.028;2023-04-01T07:05:14;64.53;;;36.35;;
30301;SDS011;17111;52.130;5.028;2023-04-01T07:07:42;65.05;;;34.92;;
30301;SDS011;17111;52.130;5.028;2023-04-01T07:10:16;63.45;;;36.15;;
30301;SDS011;17111;52.130;5.028;2023-04-01T07:12:53;61.10;;;35.63;;
30301;SDS011;17111;52.130;5.028;2023-04-01T07:15:24;61.88;;;34.22;;
30301;SDS011;17111;52.130;5.028;2023-04-01T07:17:58;59.03;;;33.83;;
30301;SDS011;17111;52.130;5.028;2023-04-01T07:20:32;54.22;;;32.00;;
30301;SDS011;17111;52.130;5.028;2023-04-01T07:23:04;58.45;;;32.65;;
30301;SDS011;17111;52.130;5.028;2023-04-01T07:25:39;55.05;;;31.50;;
30301;SDS011;17111;52.130;5.028;2023-04-01T07:28:13;52.20;;;31.25;;
30301;SDS011;17111;52.130;5.028;2023-04-01T07:30:49;57.25;;;33.35;;
30301;SDS011;17111;52.130;5.028;2023-04-01T07:33:44;53.75;;;31.80;;
30301;SDS011;17111;52.130;5.028;2023-04-01T07:45:23;48.25;;;28.08;;
30301;SDS011;17111;52.130;5.028;2023-04-01T07:48:12;50.75;;;28.35;;
30301;SDS011;17111;52.130;5.028;2023-04-01T07:55:51;47.72;;;26.80;;
30301;SDS011;17111;52.130;5.028;2023-04-01T07:58:39;42.70;;;24.30;;
30301;SDS011;17111;52.130;5.028;2023-04-01T08:01:24;42.05;;;24.88;;
30301;SDS011;17111;52.130;5.028;2023-04-01T08:04:20;40.72;;;23.45;;
30301;SDS011;17111;52.130;5.028;2023-04-01T08:07:10;42.17;;;23.75;;
30301;SDS011;17111;52.130;5.028;2023-04-01T08:15:28;42.60;;;25.10;;
30301;SDS011;17111;52.130;5.028;2023-04-01T08:20:37;45.08;;;26.15;;
30301;SDS011;17111;52.130;5.028;2023-04-01T08:28:41;48.85;;;28.48;;
30301;SDS011;17111;52.130;5.028;2023-04-01T08:31:13;46.28;;;28.10;;
30301;SDS011;17111;52.130;5.028;2023-04-01T08:36:17;48.65;;;28.92;;
30301;SDS011;17111;52.130;5.028;2023-04-01T08:38:52;51.17;;;29.70;;
30301;SDS011;17111;52.130;5.028;2023-04-01T08:44:27;52.72;;;29.17;;
30301;SDS011;17111;52.130;5.028;2023-04-01T08:53:03;46.45;;;27.05;;
30301;SDS011;17111;52.130;5.028;2023-04-01T09:10:24;44.30;;;25.85;;
30301;SDS011;17111;52.130;5.028;2023-04-01T09:35:10;41.20;;;23.83;;
30301;SDS011;17111;52.130;5.028;2023-04-01T09:40:54;41.60;;;24.35;;
30301;SDS011;17111;52.130;5.028;2023-04-01T09:46:34;50.53;;;27.55;;
30301;SDS011;17111;52.130;5.028;2023-04-01T10:00:18;44.47;;;24.08;;
30301;SDS011;17111;52.130;5.028;2023-04-01T10:23:23;40.80;;;23.98;;
30301;SDS011;17111;52.130;5.028;2023-04-01T10:32:24;39.08;;;21.88;;
30301;SDS011;17111;52.130;5.028;2023-04-01T10:57:28;32.38;;;19.25;;
30301;SDS011;17111;52.130;5.028;2023-04-01T11:22:43;57.58;;;33.97;;
30301;SDS011;17111;52.130;5.028;2023-04-01T11:34:32;69.85;;;40.50;;
30301;SDS011;17111;52.130;5.028;2023-04-01T11:37:36;69.13;;;41.83;;
30301;SDS011;17111;52.130;5.028;2023-04-01T11:42:49;63.50;;;36.60;;
30301;SDS011;17111;52.130;5.028;2023-04-01T11:45:35;61.03;;;36.90;;
30301;SDS011;17111;52.130;5.028;2023-04-01T11:53:23;59.65;;;35.70;;
30301;SDS011;17111;52.130;5.028;2023-04-01T12:08:00;60.97;;;34.83;;
30301;SDS011;17111;52.130;5.028;2023-04-01T12:10:51;55.67;;;32.60;;
30301;SDS011;17111;52.130;5.028;2023-04-01T12:13:40;54.10;;;33.33;;
30301;SDS011;17111;52.130;5.028;2023-04-01T12:44:32;51.92;;;29.92;;
30301;SDS011;17111;52.130;5.028;2023-04-01T12:52:38;49.70;;;30.67;;
30301;SDS011;17111;52.130;5.028;2023-04-01T13:20:54;45.08;;;27.20;;
30301;SDS011;17111;52.130;5.028;2023-04-01T13:29:40;44.65;;;27.80;;
30301;SDS011;17111;52.130;5.028;2023-04-01T13:32:16;45.38;;;26.98;;
30301;SDS011;17111;52.130;5.028;2023-04-01T13:35:20;42.63;;;25.83;;
30301;SDS011;17111;52.130;5.028;2023-04-01T13:40:42;38.97;;;25.63;;
30301;SDS011;17111;52.130;5.028;2023-04-01T13:43:36;38.22;;;24.23;;
30301;SDS011;17111;52.130;5.028;2023-04-01T13:49:27;40.17;;;24.48;;
30301;SDS011;17111;52.130;5.028;2023-04-01T13:54:59;39.67;;;25.13;;
30301;SDS011;17111;52.130;5.028;2023-04-01T14:11:30;47.75;;;29.15;;
30301;SDS011;17111;52.130;5.028;2023-04-01T14:34:21;44.95;;;27.90;;
30301;SDS011;17111;52.130;5.028;2023-04-01T14:40:03;43.20;;;27.25;;
30301;SDS011;17111;52.130;5.028;2023-04-01T14:42:59;43.00;;;26.98;;
30301;SDS011;17111;52.130;5.028;2023-04-01T14:48:37;43.10;;;26.10;;
30301;SDS011;17111;52.130;5.028;2023-04-01T14:57:01;41.00;;;26.60;;
30301;SDS011;17111;52.130;5.028;2023-04-01T14:59:39;41.90;;;26.02;;
30301;SDS011;17111;52.130;5.028;2023-04-01T15:02:15;42.10;;;26.45;;
30301;SDS011;17111;52.130;5.028;2023-04-01T15:11:21;44.10;;;26.90;;
30301;SDS011;17111;52.130;5.028;2023-04-01T15:14:16;44.10;;;27.33;;
30301;SDS011;17111;52.130;5.028;2023-04-01T15:31:16;48.78;;;29.40;;
30301;SDS011;17111;52.130;5.028;2023-04-01T15:37:13;48.35;;;29.98;;
30301;SDS011;17111;52.130;5.028;2023-04-01T15:51:01;54.53;;;33.22;;
30301;SDS011;17111;52.130;5.028;2023-04-01T15:53:37;58.70;;;36.13;;
30301;SDS011;17111;52.130;5.028;2023-04-01T15:56:28;57.05;;;36.00;;
30301;SDS011;17111;52.130;5.028;2023-04-01T15:59:18;59.05;;;35.03;;
30301;SDS011;17111;52.130;5.028;2023-04-01T16:01:59;64.70;;;38.22;;
30301;SDS011;17111;52.130;5.028;2023-04-01T16:07:42;60.97;;;38.50;;
30301;SDS011;17111;52.130;5.028;2023-04-01T16:10:29;60.38;;;37.13;;
30301;SDS011;17111;52.130;5.028;2023-04-01T16:24:22;57.92;;;35.30;;
30301;SDS011;17111;52.130;5.028;2023-04-01T16:27:12;58.65;;;35.08;;
30301;SDS011;17111;52.130;5.028;2023-04-01T16:29:48;57.78;;;35.63;;
30301;SDS011;17111;52.130;5.028;2023-04-01T16:43:56;56.60;;;35.38;;
30301;SDS011;17111;52.130;5.028;2023-04-01T16:46:43;53.28;;;32.63;;
30301;SDS011;17111;52.130;5.028;2023-04-01T16:51:46;51.60;;;32.70;;
30301;SDS011;17111;52.130;5.028;2023-04-01T16:57:28;53.15;;;32.47;;
30301;SDS011;17111;52.130;5.028;2023-04-01T17:00:17;50.33;;;31.63;;
30301;SDS011;17111;52.130;5.028;2023-04-01T17:11:12;64.97;;;37.58;;
30301;SDS011;17111;52.130;5.028;2023-04-01T17:14:00;60.10;;;36.42;;
30301;SDS011;17111;52.130;5.028;2023-04-01T17:16:42;62.85;;;37.65;;
30301;SDS011;17111;52.130;5.028;2023-04-01T17:31:02;56.47;;;34.97;;
30301;SDS011;17111;52.130;5.028;2023-04-01T17:47:17;57.17;;;33.42;;
30301;SDS011;17111;52.130;5.028;2023-04-01T17:52:46;53.35;;;32.70;;
30301;SDS011;17111;52.130;5.028;2023-04-01T18:00:54;54.25;;;34.53;;
30301;SDS011;17111;52.130;5.028;2023-04-01T18:06:01;53.60;;;32.85;;
30301;SDS011;17111;52.130;5.028;2023-04-01T18:17:01;56.67;;;34.67;;
30301;SDS011;17111;52.130;5.028;2023-04-01T18:22:37;50.90;;;31.45;;
30301;SDS011;17111;52.130;5.028;2023-04-01T18:31:23;57.33;;;34.05;;
30301;SDS011;17111;52.130;5.028;2023-04-01T18:39:15;52.53;;;32.35;;
30301;SDS011;17111;52.130;5.028;2023-04-01T18:52:45;58.83;;;35.08;;
30301;SDS011;17111;52.130;5.028;2023-04-01T18:55:18;59.55;;;35.72;;
30301;SDS011;17111;52.130;5.028;2023-04-01T18:57:52;59.58;;;36.15;;
30301;SDS011;17111;52.130;5.028;2023-04-01T19:00:28;56.75;;;33.83;;
30301;SDS011;17111;52.130;5.028;2023-04-01T19:03:07;54.72;;;33.40;;
30301;SDS011;17111;52.130;5.028;2023-04-01T19:05:42;57.30;;;35.45;;
30301;SDS011;17111;52.130;5.028;2023-04-01T19:08:29;58.10;;;34.42;;
30301;SDS011;17111;52.130;5.028;2023-04-01T19:11:02;54.97;;;33.90;;
30301;SDS011;17111;52.130;5.028;2023-04-01T19:16:34;51.93;;;31.43;;
30301;SDS011;17111;52.130;5.028;2023-04-01T19:22:03;56.38;;;33.65;;
30301;SDS011;17111;52.130;5.028;2023-04-01T19:27:22;50.78;;;31.00;;
30301;SDS011;17111;52.130;5.028;2023-04-01T19:30:44;57.50;;;35.13;;
30301;SDS011;17111;52.130;5.028;2023-04-01T19:32:58;59.42;;;35.80;;
30301;SDS011;17111;52.130;5.028;2023-04-01T19:35:36;55.97;;;33.72;;
30301;SDS011;17111;52.130;5.028;2023-04-01T19:41:09;68.65;;;40.15;;
30301;SDS011;17111;52.130;5.028;2023-04-01T19:46:58;69.65;;;42.25;;
30301;SDS011;17111;52.130;5.028;2023-04-01T20:00:49;62.00;;;37.85;;
30301;SDS011;17111;52.130;5.028;2023-04-01T20:12:21;60.78;;;37.03;;
30301;SDS011;17111;52.130;5.028;2023-04-01T20:14:57;62.75;;;37.92;;
30301;SDS011;17111;52.130;5.028;2023-04-01T20:17:38;62.53;;;37.40;;
30301;SDS011;17111;52.130;5.028;2023-04-01T20:25:15;61.30;;;37.28;;
30301;SDS011;17111;52.130;5.028;2023-04-01T20:27:49;57.50;;;34.72;;
30301;SDS011;17111;52.130;5.028;2023-04-01T20:33:33;52.88;;;32.85;;
30301;SDS011;17111;52.130;5.028;2023-04-01T20:36:20;51.42;;;32.13;;
30301;SDS011;17111;52.130;5.028;2023-04-01T20:41:58;60.88;;;36.25;;
30301;SDS011;17111;52.130;5.028;2023-04-01T21:01:13;70.75;;;43.63;;
30301;SDS011;17111;52.130;5.028;2023-04-01T21:04:17;72.35;;;43.70;;
30301;SDS011;17111;52.130;5.028;2023-04-01T21:06:56;73.38;;;44.53;;
30301;SDS011;17111;52.130;5.028;2023-04-01T21:25:09;67.93;;;40.40;;
30301;SDS011;17111;52.130;5.028;2023-04-01T21:27:52;68.28;;;41.00;;
30301;SDS011;17111;52.130;5.028;2023-04-01T21:30:45;60.33;;;37.78;;
30301;SDS011;17111;52.130;5.028;2023-04-01T21:50:46;51.75;;;32.92;;
30301;SDS011;17111;52.130;5.028;2023-04-01T21:53:33;57.90;;;35.17;;
30301;SDS011;17111;52.130;5.028;2023-04-01T22:01:59;53.35;;;33.28;;
30301;SDS011;17111;52.130;5.028;2023-04-01T22:07:46;54.13;;;32.95;;
30301;SDS011;17111;52.130;5.028;2023-04-01T22:18:31;52.65;;;32.85;;
30301;SDS011;17111;52.130;5.028;2023-04-01T22:29:17;53.47;;;32.45;;
30301;SDS011;17111;52.130;5.028;2023-04-01T22:32:06;52.97;;;31.65;;
30301;SDS011;17111;52.130;5.028;2023-04-01T22:40:06;53.35;;;32.83;;
30301;SDS011;17111;52.130;5.028;2023-04-01T22:42:40;50.38;;;30.17;;
30301;SDS011;17111;52.130;5.028;2023-04-01T22:45:21;47.97;;;29.40;;
30301;SDS011;17111;52.130;5.028;2023-04-01T22:51:13;49.00;;;30.08;;
30301;SDS011;17111;52.130;5.028;2023-04-01T22:53:59;49.83;;;29.00;;
30301;SDS011;17111;52.130;5.028;2023-04-01T22:56:39;50.05;;;30.58;;
30301;SDS011;17111;52.130;5.028;2023-04-01T23:02:04;49.20;;;29.70;;
30301;SDS011;17111;52.130;5.028;2023-04-01T23:04:38;46.90;;;29.38;;
30301;SDS011;17111;52.130;5.028;2023-04-01T23:07:27;46.38;;;29.42;;
30301;SDS011;17111;52.130;5.028;2023-04-01T23:10:05;47.90;;;29.30;;
30301;SDS011;17111;52.130;5.028;2023-04-01T23:12:47;45.05;;;27.98;;
30301;SDS011;17111;52.130;5.028;2023-04-01T23:15:17;45.78;;;27.63;;
30301;SDS011;17111;52.130;5.028;2023-04-01T23:23:49;47.85;;;28.75;;
30301;SDS011;17111;52.130;5.028;2023-04-01T23:26:39;42.75;;;26.13;;
30301;SDS011;17111;52.130;5.028;2023-04-01T23:29:15;44.53;;;27.17;;
30301;SDS011;17111;52.130;5.028;2023-04-01T23:32:02;43.05;;;26.13;;
30301;SDS011;17111;52.130;5.028;2023-04-01T23:34:30;47.13;;;27.73;;
30301;SDS011;17111;52.130;5.028;2023-04-01T23:37:04;41.47;;;25.70;;
30301;SDS011;17111;52.130;5.028;2023-04-01T23:39:37;46.30;;;27.38;;
30301;SDS011;17111;52.130;5.028;2023-04-01T23:42:07;42.83;;;26.60;;
30301;SDS011;17111;52.130;5.028;2023-04-01T23:44:38;41.75;;;25.10;;
30301;SDS011;17111;52.130;5.028;2023-04-01T23:47:06;41.53;;;25.67;;
30301;SDS011;17111;52.130;5.028;2023-04-01T23:49:39;41.75;;;25.33;;
30301;SDS011;17111;52.130;5.028;2023-04-01T23:52:14;40.50;;;24.27;;
30301;SDS011;17111;52.130;5.028;2023-04-01T23:54:48;42.78;;;24.92;;
30301;SDS011;17111;52.130;5.028;2023-04-01T23:57:19;37.03;;;23.08;;
